• Join FlightAware (Why Join?)
  • Login
  • US Flag 
04:54AM EDT


 

Airport Tracker/Info


-or-


 

Live Flight TrackerFlight Track Log ✈ N568MC ✈ 13-Jul-2013 ✈ KJWN - KPAH

Flight Track Log - Related Links

Times and Time Zones

All times are in EDT time to prevent confusion due to time zone crossing. See the N568MC flight status page for this flight to view local times or setup timezone preferences in your user account.

Time Position Orientation Groundspeed Altitude Reporting Facility
EDT Latitude Longitude Course Direction KTS MPH feet Rate Location/Type
09:52PM 36.2000 -86.8833 360° North 51 59 800  Level Nashville TRACON
09:52PM 36.2000 -86.8833 360° North 88 101 1,100 480 Climbing Nashville TRACON
09:53PM 36.2333 -86.8833 360° North 96 110 1,600 480 Climbing Nashville TRACON
09:54PM 36.2500 -86.9167 302° West 109 125 2,100 420 Climbing Nashville TRACON
09:55PM 36.2500 -86.9500 270° West 116 133 2,500 360 Climbing Nashville TRACON
09:56PM 36.2667 -86.9833 302° West 113 130 2,900 360 Climbing Nashville TRACON
09:58PM 36.2747 -87.0414 280° West 109 125 3,400 360 Climbing Memphis Center
09:59PM 36.2819 -87.0794 283° West 109 125 3,800 360 Climbing Memphis Center
10:00PM 36.2914 -87.1178 287° West 109 125 4,200 360 Climbing Memphis Center
10:01PM 36.3028 -87.1561 290° West 114 131 4,600 360 Climbing Memphis Center
10:02PM 36.3142 -87.1917 292° West 114 131 5,000 360 Climbing Memphis Center
10:03PM 36.3275 -87.2272 295° West 114 131 5,400 360 Climbing Memphis Center
10:04PM 36.3431 -87.2678 295° West 114 131 5,800 300 Climbing Memphis Center
10:05PM 36.3567 -87.3058 294° West 114 131 6,000 60 Climbing Memphis Center
10:06PM 36.3700 -87.3492 291° West 124 143 6,000  Level Memphis Center
10:07PM 36.3858 -87.3950 293° West 139 160 6,000  Level Memphis Center
10:08PM 36.4036 -87.4408 296° West 146 168 6,000  Level Memphis Center
10:09PM 36.4214 -87.4892 295° West 146 168 6,000  Level Memphis Center
10:10PM 36.4369 -87.5297 295° West 146 168 6,000  Level Memphis Center
10:11PM 36.4589 -87.5756 301° West 146 168 6,000  Level Memphis Center
10:12PM 36.4786 -87.6189 300° West 146 168 6,000  Level Memphis Center
10:13PM 36.4939 -87.6594 295° West 146 168 6,000  Level Memphis Center
10:14PM 36.5136 -87.7003 301° West 151 174 6,000  Level Memphis Center
10:15PM 36.5333 -87.7433 300° West 144 166 6,000  Level Memphis Center
10:16PM 36.5550 -87.7842 303° West 139 160 6,000  Level Memphis Center
10:17PM 36.5706 -87.8325 292° West 139 160 6,000  Level Memphis Center
10:18PM 36.5922 -87.8733 303° West 144 166 6,000  Level Memphis Center
10:19PM 36.6183 -87.9217 304° West 144 166 6,000  Level Memphis Center
10:20PM 36.6378 -87.9625 301° West 144 166 6,000  Level Memphis Center
10:21PM 36.6636 -88.0056 307° West 144 166 6,000  Level Memphis Center
10:22PM 36.6853 -88.0489 302° West 144 166 6,000  Level Memphis Center
10:23PM 36.7069 -88.0922 302° West 144 166 6,000  Level Memphis Center
10:24PM 36.7264 -88.1383 298° West 139 160 6,000  Level Memphis Center
10:25PM 36.7522 -88.1792 308° West 139 160 6,000 -120 Level Memphis Center
10:26PM 36.7758 -88.2200 306° West 145 167 5,800 -300 Descending Memphis Center
10:27PM 36.7997 -88.2686 302° West 157 181 5,400 -480 Descending Memphis Center
10:28PM 36.8214 -88.3172 299° West 157 181 4,900 300 Descending Memphis Center
10:29PM 36.8428 -88.3608 302° West 164 189 6,000 -480 Climbing Memphis Center
10:30PM 36.8667 -88.4094 302° West 164 189 4,000 -1,200 Descending Memphis Center
10:31PM 36.8922 -88.4556 305° West 164 189 3,600 -420 Descending Memphis Center
10:32PM 36.9181 -88.5017 305° West 164 189 3,200 -480 Descending Memphis Center
10:33PM 36.9414 -88.5453 304° West 164 189 2,700 -300 Descending Memphis Center
10:34PM 36.9672 -88.5886 307° West 164 189 2,600 -60 Descending Memphis Center
10:35PM 36.9844 -88.6297 298° West 157 181 2,600 -180 Level Memphis Center
10:36PM 36.9975 -88.6736 290° West 150 173 2,300 -300 Descending Memphis Center
10:37PM 37.0128 -88.7175 294° West 145 167 2,000 -600 Descending Memphis Center
10:38PM 37.0339 -88.7458 313° West 125 144 1,200 -720 Descending Memphis Center
10:39PM 37.0528 -88.7636 323° Northwest 113 130 600 -600 Descending Memphis Center